sensor_id;sensor_type;location;lat;lon;timestamp;P1;durP1;ratioP1;P2;durP2;ratioP2
18853;SDS011;9556;49.374;19.446;2022-12-07T00:00:06;1.73;;;1.10;;
18853;SDS011;9556;49.374;19.446;2022-12-07T00:02:33;2.58;;;1.10;;
18853;SDS011;9556;49.374;19.446;2022-12-07T00:05:01;5.05;;;1.40;;
18853;SDS011;9556;49.374;19.446;2022-12-07T00:07:29;2.75;;;1.30;;
18853;SDS011;9556;49.374;19.446;2022-12-07T00:09:56;3.85;;;1.30;;
18853;SDS011;9556;49.374;19.446;2022-12-07T00:12:23;3.05;;;1.67;;
18853;SDS011;9556;49.374;19.446;2022-12-07T00:14:51;4.25;;;1.33;;
18853;SDS011;9556;49.374;19.446;2022-12-07T00:17:18;1.55;;;0.93;;
18853;SDS011;9556;49.374;19.446;2022-12-07T00:19:45;2.30;;;1.13;;
18853;SDS011;9556;49.374;19.446;2022-12-07T00:22:12;1.70;;;1.10;;
18853;SDS011;9556;49.374;19.446;2022-12-07T00:24:40;2.50;;;1.10;;
18853;SDS011;9556;49.374;19.446;2022-12-07T00:27:07;1.92;;;1.05;;
18853;SDS011;9556;49.374;19.446;2022-12-07T00:29:35;1.70;;;1.10;;
18853;SDS011;9556;49.374;19.446;2022-12-07T00:32:03;2.72;;;1.20;;
18853;SDS011;9556;49.374;19.446;2022-12-07T00:34:30;2.30;;;1.00;;
18853;SDS011;9556;49.374;19.446;2022-12-07T00:36:57;1.55;;;1.10;;
18853;SDS011;9556;49.374;19.446;2022-12-07T00:39:24;1.75;;;1.10;;
18853;SDS011;9556;49.374;19.446;2022-12-07T00:41:53;1.98;;;1.15;;
18853;SDS011;9556;49.374;19.446;2022-12-07T00:44:20;1.92;;;1.20;;
18853;SDS011;9556;49.374;19.446;2022-12-07T00:46:47;2.00;;;1.00;;
18853;SDS011;9556;49.374;19.446;2022-12-07T00:49:14;2.72;;;1.10;;
18853;SDS011;9556;49.374;19.446;2022-12-07T00:51:41;1.90;;;1.00;;
18853;SDS011;9556;49.374;19.446;2022-12-07T00:54:08;3.17;;;1.08;;
18853;SDS011;9556;49.374;19.446;2022-12-07T00:56:35;1.40;;;1.00;;
18853;SDS011;9556;49.374;19.446;2022-12-07T00:59:04;2.95;;;1.30;;
18853;SDS011;9556;49.374;19.446;2022-12-07T01:01:32;1.45;;;0.90;;
18853;SDS011;9556;49.374;19.446;2022-12-07T01:03:59;3.05;;;0.90;;
18853;SDS011;9556;49.374;19.446;2022-12-07T01:06:27;2.03;;;1.10;;
18853;SDS011;9556;49.374;19.446;2022-12-07T01:08:54;1.73;;;1.05;;
18853;SDS011;9556;49.374;19.446;2022-12-07T01:11:22;2.17;;;1.20;;
18853;SDS011;9556;49.374;19.446;2022-12-07T01:13:49;1.63;;;0.90;;
18853;SDS011;9556;49.374;19.446;2022-12-07T01:16:18;1.00;;;0.90;;
18853;SDS011;9556;49.374;19.446;2022-12-07T01:18:46;1.75;;;0.93;;
18853;SDS011;9556;49.374;19.446;2022-12-07T01:21:14;1.40;;;0.90;;
18853;SDS011;9556;49.374;19.446;2022-12-07T01:23:41;1.70;;;1.00;;
18853;SDS011;9556;49.374;19.446;2022-12-07T01:26:10;1.13;;;0.90;;
18853;SDS011;9556;49.374;19.446;2022-12-07T01:28:37;1.30;;;0.90;;
18853;SDS011;9556;49.374;19.446;2022-12-07T01:31:05;1.08;;;0.90;;
18853;SDS011;9556;49.374;19.446;2022-12-07T01:33:34;1.10;;;0.90;;
18853;SDS011;9556;49.374;19.446;2022-12-07T01:36:02;2.38;;;1.08;;
18853;SDS011;9556;49.374;19.446;2022-12-07T01:38:30;2.35;;;0.95;;
18853;SDS011;9556;49.374;19.446;2022-12-07T01:40:57;1.67;;;1.02;;
18853;SDS011;9556;49.374;19.446;2022-12-07T01:43:26;2.42;;;1.00;;
18853;SDS011;9556;49.374;19.446;2022-12-07T01:45:54;1.15;;;0.82;;
18853;SDS011;9556;49.374;19.446;2022-12-07T01:48:22;1.50;;;0.90;;
18853;SDS011;9556;49.374;19.446;2022-12-07T01:50:52;1.83;;;1.00;;
18853;SDS011;9556;49.374;19.446;2022-12-07T01:53:20;1.83;;;0.90;;
18853;SDS011;9556;49.374;19.446;2022-12-07T01:55:49;1.17;;;0.80;;
18853;SDS011;9556;49.374;19.446;2022-12-07T01:58:18;1.05;;;0.95;;
18853;SDS011;9556;49.374;19.446;2022-12-07T02:00:46;2.47;;;0.90;;
18853;SDS011;9556;49.374;19.446;2022-12-07T02:03:14;1.65;;;1.10;;
18853;SDS011;9556;49.374;19.446;2022-12-07T02:05:43;1.98;;;0.80;;
18853;SDS011;9556;49.374;19.446;2022-12-07T02:08:12;1.95;;;0.90;;
18853;SDS011;9556;49.374;19.446;2022-12-07T02:10:40;2.92;;;0.80;;
18853;SDS011;9556;49.374;19.446;2022-12-07T02:13:08;0.93;;;0.80;;
18853;SDS011;9556;49.374;19.446;2022-12-07T02:18:23;2.33;;;1.00;;
18853;SDS011;9556;49.374;19.446;2022-12-07T02:20:52;0.73;;;0.60;;
18853;SDS011;9556;49.374;19.446;2022-12-07T02:26:08;1.33;;;0.82;;
18853;SDS011;9556;49.374;19.446;2022-12-07T02:28:47;0.85;;;0.70;;
18853;SDS011;9556;49.374;19.446;2022-12-07T02:31:16;0.73;;;0.70;;
18853;SDS011;9556;49.374;19.446;2022-12-07T02:33:45;3.22;;;0.73;;
18853;SDS011;9556;49.374;19.446;2022-12-07T02:36:15;1.63;;;0.70;;
18853;SDS011;9556;49.374;19.446;2022-12-07T02:38:45;1.00;;;0.75;;
18853;SDS011;9556;49.374;19.446;2022-12-07T02:41:16;1.73;;;0.80;;
18853;SDS011;9556;49.374;19.446;2022-12-07T02:43:45;1.33;;;0.80;;
18853;SDS011;9556;49.374;19.446;2022-12-07T02:46:15;1.40;;;0.82;;
18853;SDS011;9556;49.374;19.446;2022-12-07T02:48:43;1.08;;;0.73;;
18853;SDS011;9556;49.374;19.446;2022-12-07T02:51:12;1.30;;;0.80;;
18853;SDS011;9556;49.374;19.446;2022-12-07T02:53:40;1.40;;;0.80;;
18853;SDS011;9556;49.374;19.446;2022-12-07T02:56:08;1.63;;;0.75;;
18853;SDS011;9556;49.374;19.446;2022-12-07T02:58:41;0.80;;;0.60;;
18853;SDS011;9556;49.374;19.446;2022-12-07T03:01:14;0.85;;;0.68;;
18853;SDS011;9556;49.374;19.446;2022-12-07T03:03:48;0.85;;;0.70;;
18853;SDS011;9556;49.374;19.446;2022-12-07T03:06:20;0.95;;;0.75;;
18853;SDS011;9556;49.374;19.446;2022-12-07T03:08:51;0.68;;;0.57;;
18853;SDS011;9556;49.374;19.446;2022-12-07T03:11:21;1.17;;;0.70;;
18853;SDS011;9556;49.374;19.446;2022-12-07T03:13:54;1.02;;;0.70;;
18853;SDS011;9556;49.374;19.446;2022-12-07T03:16:25;1.55;;;0.90;;
18853;SDS011;9556;49.374;19.446;2022-12-07T03:18:58;0.60;;;0.60;;
18853;SDS011;9556;49.374;19.446;2022-12-07T03:21:26;1.00;;;0.60;;
18853;SDS011;9556;49.374;19.446;2022-12-07T03:23:55;0.75;;;0.65;;
18853;SDS011;9556;49.374;19.446;2022-12-07T03:26:23;0.63;;;0.60;;
18853;SDS011;9556;49.374;19.446;2022-12-07T03:28:52;0.60;;;0.60;;
18853;SDS011;9556;49.374;19.446;2022-12-07T03:31:22;0.98;;;0.65;;
18853;SDS011;9556;49.374;19.446;2022-12-07T03:33:52;0.70;;;0.70;;
18853;SDS011;9556;49.374;19.446;2022-12-07T03:36:22;0.90;;;0.70;;
18853;SDS011;9556;49.374;19.446;2022-12-07T03:38:53;0.68;;;0.65;;
18853;SDS011;9556;49.374;19.446;2022-12-07T03:41:22;0.90;;;0.65;;
18853;SDS011;9556;49.374;19.446;2022-12-07T03:43:50;0.60;;;0.60;;
18853;SDS011;9556;49.374;19.446;2022-12-07T03:46:19;0.80;;;0.60;;
18853;SDS011;9556;49.374;19.446;2022-12-07T03:48:49;0.98;;;0.60;;
18853;SDS011;9556;49.374;19.446;2022-12-07T03:51:23;0.75;;;0.60;;
18853;SDS011;9556;49.374;19.446;2022-12-07T03:53:53;0.52;;;0.52;;
18853;SDS011;9556;49.374;19.446;2022-12-07T03:56:21;0.65;;;0.50;;
18853;SDS011;9556;49.374;19.446;2022-12-07T03:58:49;1.48;;;0.70;;
18853;SDS011;9556;49.374;19.446;2022-12-07T04:01:17;7.13;;;0.70;;
18853;SDS011;9556;49.374;19.446;2022-12-07T04:03:44;5.45;;;0.73;;
18853;SDS011;9556;49.374;19.446;2022-12-07T04:06:12;7.10;;;0.60;;
18853;SDS011;9556;49.374;19.446;2022-12-07T04:08:40;0.52;;;0.52;;
18853;SDS011;9556;49.374;19.446;2022-12-07T04:11:07;1.23;;;0.80;;
18853;SDS011;9556;49.374;19.446;2022-12-07T04:13:34;0.73;;;0.60;;
18853;SDS011;9556;49.374;19.446;2022-12-07T04:16:21;0.65;;;0.57;;
18853;SDS011;9556;49.374;19.446;2022-12-07T04:18:48;0.70;;;0.68;;
18853;SDS011;9556;49.374;19.446;2022-12-07T04:21:16;0.52;;;0.52;;
18853;SDS011;9556;49.374;19.446;2022-12-07T04:23:44;0.60;;;0.60;;
18853;SDS011;9556;49.374;19.446;2022-12-07T04:26:11;1.33;;;0.60;;
18853;SDS011;9556;49.374;19.446;2022-12-07T04:28:38;0.70;;;0.52;;
18853;SDS011;9556;49.374;19.446;2022-12-07T04:31:05;0.93;;;0.60;;
18853;SDS011;9556;49.374;19.446;2022-12-07T04:33:33;2.50;;;0.52;;
18853;SDS011;9556;49.374;19.446;2022-12-07T04:36:00;7.60;;;0.60;;
18853;SDS011;9556;49.374;19.446;2022-12-07T04:38:27;1.23;;;0.60;;
18853;SDS011;9556;49.374;19.446;2022-12-07T04:40:55;2.15;;;0.50;;
18853;SDS011;9556;49.374;19.446;2022-12-07T04:43:23;0.65;;;0.60;;
18853;SDS011;9556;49.374;19.446;2022-12-07T04:45:50;1.25;;;0.50;;
18853;SDS011;9556;49.374;19.446;2022-12-07T04:48:17;0.43;;;0.43;;
18853;SDS011;9556;49.374;19.446;2022-12-07T04:50:44;0.50;;;0.50;;
18853;SDS011;9556;49.374;19.446;2022-12-07T04:53:11;4.10;;;0.70;;
18853;SDS011;9556;49.374;19.446;2022-12-07T04:55:38;0.73;;;0.50;;
18853;SDS011;9556;49.374;19.446;2022-12-07T04:58:07;2.42;;;0.70;;
18853;SDS011;9556;49.374;19.446;2022-12-07T05:00:34;1.20;;;0.50;;
18853;SDS011;9556;49.374;19.446;2022-12-07T05:03:01;1.02;;;0.60;;
18853;SDS011;9556;49.374;19.446;2022-12-07T05:05:28;1.25;;;0.68;;
18853;SDS011;9556;49.374;19.446;2022-12-07T05:07:55;3.55;;;0.60;;
18853;SDS011;9556;49.374;19.446;2022-12-07T05:10:22;5.15;;;0.90;;
18853;SDS011;9556;49.374;19.446;2022-12-07T05:12:49;2.17;;;0.75;;
18853;SDS011;9556;49.374;19.446;2022-12-07T05:15:18;1.35;;;0.80;;
18853;SDS011;9556;49.374;19.446;2022-12-07T05:17:45;1.50;;;0.77;;
18853;SDS011;9556;49.374;19.446;2022-12-07T05:20:12;8.82;;;0.70;;
18853;SDS011;9556;49.374;19.446;2022-12-07T05:22:39;1.70;;;0.90;;
18853;SDS011;9556;49.374;19.446;2022-12-07T05:25:07;2.53;;;0.75;;
18853;SDS011;9556;49.374;19.446;2022-12-07T05:27:34;6.00;;;0.90;;
18853;SDS011;9556;49.374;19.446;2022-12-07T05:30:01;8.25;;;1.15;;
18853;SDS011;9556;49.374;19.446;2022-12-07T05:32:30;3.38;;;1.00;;
18853;SDS011;9556;49.374;19.446;2022-12-07T05:34:57;9.63;;;1.00;;
18853;SDS011;9556;49.374;19.446;2022-12-07T05:37:24;4.32;;;0.90;;
18853;SDS011;9556;49.374;19.446;2022-12-07T05:39:51;7.68;;;1.00;;
18853;SDS011;9556;49.374;19.446;2022-12-07T05:42:18;8.73;;;0.90;;
18853;SDS011;9556;49.374;19.446;2022-12-07T05:44:46;8.82;;;1.10;;
18853;SDS011;9556;49.374;19.446;2022-12-07T05:47:13;5.85;;;0.90;;
18853;SDS011;9556;49.374;19.446;2022-12-07T05:49:42;11.60;;;1.00;;
18853;SDS011;9556;49.374;19.446;2022-12-07T05:52:09;10.95;;;0.70;;
18853;SDS011;9556;49.374;19.446;2022-12-07T05:54:36;8.60;;;1.40;;
18853;SDS011;9556;49.374;19.446;2022-12-07T05:57:03;5.20;;;0.90;;
18853;SDS011;9556;49.374;19.446;2022-12-07T05:59:31;9.05;;;0.73;;
18853;SDS011;9556;49.374;19.446;2022-12-07T06:01:57;6.25;;;0.90;;
18853;SDS011;9556;49.374;19.446;2022-12-07T06:04:25;1.67;;;0.80;;
18853;SDS011;9556;49.374;19.446;2022-12-07T06:06:54;3.97;;;0.90;;
18853;SDS011;9556;49.374;19.446;2022-12-07T06:09:22;2.65;;;0.70;;
18853;SDS011;9556;49.374;19.446;2022-12-07T06:11:49;4.47;;;0.90;;
18853;SDS011;9556;49.374;19.446;2022-12-07T06:14:34;2.92;;;0.80;;
18853;SDS011;9556;49.374;19.446;2022-12-07T06:17:01;5.35;;;0.88;;
18853;SDS011;9556;49.374;19.446;2022-12-07T06:19:28;3.28;;;0.80;;
18853;SDS011;9556;49.374;19.446;2022-12-07T06:21:56;2.40;;;0.88;;
18853;SDS011;9556;49.374;19.446;2022-12-07T06:24:24;9.55;;;1.10;;
18853;SDS011;9556;49.374;19.446;2022-12-07T06:26:51;6.32;;;0.80;;
18853;SDS011;9556;49.374;19.446;2022-12-07T06:29:18;4.82;;;1.00;;
18853;SDS011;9556;49.374;19.446;2022-12-07T06:31:47;5.07;;;0.90;;
18853;SDS011;9556;49.374;19.446;2022-12-07T06:34:14;3.42;;;0.82;;
18853;SDS011;9556;49.374;19.446;2022-12-07T06:36:42;3.15;;;0.90;;
18853;SDS011;9556;49.374;19.446;2022-12-07T06:39:11;1.67;;;0.70;;
18853;SDS011;9556;49.374;19.446;2022-12-07T06:41:38;4.78;;;0.82;;
18853;SDS011;9556;49.374;19.446;2022-12-07T06:44:05;8.70;;;0.82;;
18853;SDS011;9556;49.374;19.446;2022-12-07T06:46:33;1.50;;;0.73;;
18853;SDS011;9556;49.374;19.446;2022-12-07T06:49:01;3.50;;;0.90;;
18853;SDS011;9556;49.374;19.446;2022-12-07T06:51:28;4.65;;;0.95;;
18853;SDS011;9556;49.374;19.446;2022-12-07T06:53:55;5.25;;;0.90;;
18853;SDS011;9556;49.374;19.446;2022-12-07T06:56:24;10.00;;;0.95;;
18853;SDS011;9556;49.374;19.446;2022-12-07T06:58:51;4.40;;;1.00;;
18853;SDS011;9556;49.374;19.446;2022-12-07T07:01:18;4.50;;;0.73;;
18853;SDS011;9556;49.374;19.446;2022-12-07T07:03:45;6.60;;;1.00;;
18853;SDS011;9556;49.374;19.446;2022-12-07T07:06:13;5.40;;;1.10;;
18853;SDS011;9556;49.374;19.446;2022-12-07T07:08:41;12.25;;;0.80;;
18853;SDS011;9556;49.374;19.446;2022-12-07T07:11:08;7.10;;;1.15;;
18853;SDS011;9556;49.374;19.446;2022-12-07T07:13:37;16.02;;;1.48;;
18853;SDS011;9556;49.374;19.446;2022-12-07T07:16:05;14.05;;;2.08;;
18853;SDS011;9556;49.374;19.446;2022-12-07T07:18:32;14.65;;;2.00;;
18853;SDS011;9556;49.374;19.446;2022-12-07T07:20:59;15.50;;;2.10;;
18853;SDS011;9556;49.374;19.446;2022-12-07T07:23:27;12.15;;;2.53;;
18853;SDS011;9556;49.374;19.446;2022-12-07T07:25:54;16.48;;;2.17;;
18853;SDS011;9556;49.374;19.446;2022-12-07T07:28:21;21.63;;;2.78;;
18853;SDS011;9556;49.374;19.446;2022-12-07T07:30:50;26.80;;;2.47;;
18853;SDS011;9556;49.374;19.446;2022-12-07T07:33:17;12.13;;;2.45;;
18853;SDS011;9556;49.374;19.446;2022-12-07T07:35:44;13.85;;;2.47;;
18853;SDS011;9556;49.374;19.446;2022-12-07T07:38:11;14.73;;;2.65;;
18853;SDS011;9556;49.374;19.446;2022-12-07T07:40:38;15.13;;;2.50;;
18853;SDS011;9556;49.374;19.446;2022-12-07T07:43:05;14.02;;;2.42;;
18853;SDS011;9556;49.374;19.446;2022-12-07T07:45:32;16.83;;;2.15;;
18853;SDS011;9556;49.374;19.446;2022-12-07T07:48:01;14.07;;;2.33;;
18853;SDS011;9556;49.374;19.446;2022-12-07T07:50:28;14.98;;;2.20;;
18853;SDS011;9556;49.374;19.446;2022-12-07T07:52:56;17.58;;;2.08;;
18853;SDS011;9556;49.374;19.446;2022-12-07T07:55:23;9.95;;;1.88;;
18853;SDS011;9556;49.374;19.446;2022-12-07T07:57:50;10.48;;;1.98;;
18853;SDS011;9556;49.374;19.446;2022-12-07T08:00:18;9.75;;;1.98;;
18853;SDS011;9556;49.374;19.446;2022-12-07T08:02:45;10.65;;;1.88;;
18853;SDS011;9556;49.374;19.446;2022-12-07T08:05:13;6.78;;;1.80;;
18853;SDS011;9556;49.374;19.446;2022-12-07T08:07:40;9.18;;;1.80;;
18853;SDS011;9556;49.374;19.446;2022-12-07T08:10:09;8.73;;;1.55;;
18853;SDS011;9556;49.374;19.446;2022-12-07T08:12:37;7.53;;;1.85;;
18853;SDS011;9556;49.374;19.446;2022-12-07T08:15:25;10.55;;;1.50;;
18853;SDS011;9556;49.374;19.446;2022-12-07T08:17:53;9.55;;;1.83;;
18853;SDS011;9556;49.374;19.446;2022-12-07T08:20:21;13.48;;;2.10;;
18853;SDS011;9556;49.374;19.446;2022-12-07T08:22:49;5.90;;;1.50;;
18853;SDS011;9556;49.374;19.446;2022-12-07T08:25:16;8.65;;;1.63;;
18853;SDS011;9556;49.374;19.446;2022-12-07T08:27:43;7.35;;;1.50;;
18853;SDS011;9556;49.374;19.446;2022-12-07T08:30:10;6.75;;;1.52;;
18853;SDS011;9556;49.374;19.446;2022-12-07T08:32:38;7.18;;;1.58;;
18853;SDS011;9556;49.374;19.446;2022-12-07T08:35:05;8.55;;;1.70;;
18853;SDS011;9556;49.374;19.446;2022-12-07T08:37:34;6.10;;;1.50;;
18853;SDS011;9556;49.374;19.446;2022-12-07T08:40:01;7.45;;;1.65;;
18853;SDS011;9556;49.374;19.446;2022-12-07T08:42:28;4.78;;;1.50;;
18853;SDS011;9556;49.374;19.446;2022-12-07T08:45:02;8.82;;;1.40;;
18853;SDS011;9556;49.374;19.446;2022-12-07T08:47:30;6.00;;;1.58;;
18853;SDS011;9556;49.374;19.446;2022-12-07T08:49:57;9.02;;;1.70;;
18853;SDS011;9556;49.374;19.446;2022-12-07T08:52:28;4.78;;;1.70;;
18853;SDS011;9556;49.374;19.446;2022-12-07T08:54:57;5.82;;;1.75;;
18853;SDS011;9556;49.374;19.446;2022-12-07T08:57:25;6.30;;;1.60;;
18853;SDS011;9556;49.374;19.446;2022-12-07T08:59:53;5.00;;;1.33;;
18853;SDS011;9556;49.374;19.446;2022-12-07T09:02:20;4.75;;;1.45;;
18853;SDS011;9556;49.374;19.446;2022-12-07T09:04:47;6.70;;;1.52;;
18853;SDS011;9556;49.374;19.446;2022-12-07T09:07:14;5.80;;;1.40;;
18853;SDS011;9556;49.374;19.446;2022-12-07T09:09:42;2.92;;;1.30;;
18853;SDS011;9556;49.374;19.446;2022-12-07T09:12:10;4.55;;;1.40;;
18853;SDS011;9556;49.374;19.446;2022-12-07T09:14:37;5.35;;;1.52;;
18853;SDS011;9556;49.374;19.446;2022-12-07T09:17:05;6.13;;;1.55;;
18853;SDS011;9556;49.374;19.446;2022-12-07T09:19:33;4.75;;;1.30;;
18853;SDS011;9556;49.374;19.446;2022-12-07T09:22:00;4.63;;;1.30;;
18853;SDS011;9556;49.374;19.446;2022-12-07T09:24:27;11.98;;;1.67;;
18853;SDS011;9556;49.374;19.446;2022-12-07T09:26:54;5.78;;;1.38;;
18853;SDS011;9556;49.374;19.446;2022-12-07T09:29:25;3.58;;;1.38;;
18853;SDS011;9556;49.374;19.446;2022-12-07T09:31:53;3.67;;;1.40;;
18853;SDS011;9556;49.374;19.446;2022-12-07T09:34:20;6.40;;;1.90;;
18853;SDS011;9556;49.374;19.446;2022-12-07T09:36:47;4.25;;;1.38;;
18853;SDS011;9556;49.374;19.446;2022-12-07T09:39:14;4.28;;;1.38;;
18853;SDS011;9556;49.374;19.446;2022-12-07T09:41:42;4.05;;;1.23;;
18853;SDS011;9556;49.374;19.446;2022-12-07T09:44:10;5.93;;;1.35;;
18853;SDS011;9556;49.374;19.446;2022-12-07T09:46:40;3.47;;;1.38;;
18853;SDS011;9556;49.374;19.446;2022-12-07T09:49:09;3.25;;;1.17;;
18853;SDS011;9556;49.374;19.446;2022-12-07T09:51:38;4.50;;;1.30;;
18853;SDS011;9556;49.374;19.446;2022-12-07T09:54:05;4.50;;;1.30;;
18853;SDS011;9556;49.374;19.446;2022-12-07T09:56:32;4.25;;;1.27;;
18853;SDS011;9556;49.374;19.446;2022-12-07T09:59:00;8.88;;;1.30;;
18853;SDS011;9556;49.374;19.446;2022-12-07T10:01:28;8.18;;;1.38;;
18853;SDS011;9556;49.374;19.446;2022-12-07T10:04:00;9.95;;;1.50;;
18853;SDS011;9556;49.374;19.446;2022-12-07T10:06:28;10.43;;;1.50;;
18853;SDS011;9556;49.374;19.446;2022-12-07T10:08:56;10.10;;;1.50;;
18853;SDS011;9556;49.374;19.446;2022-12-07T10:11:23;7.82;;;1.30;;
18853;SDS011;9556;49.374;19.446;2022-12-07T10:13:51;10.65;;;1.45;;
18853;SDS011;9556;49.374;19.446;2022-12-07T10:16:37;6.85;;;1.40;;
18853;SDS011;9556;49.374;19.446;2022-12-07T10:19:20;8.88;;;1.60;;
18853;SDS011;9556;49.374;19.446;2022-12-07T10:22:00;6.60;;;1.40;;
18853;SDS011;9556;49.374;19.446;2022-12-07T10:24:28;6.63;;;1.50;;
18853;SDS011;9556;49.374;19.446;2022-12-07T10:26:56;9.52;;;1.70;;
18853;SDS011;9556;49.374;19.446;2022-12-07T10:29:24;4.53;;;1.30;;
18853;SDS011;9556;49.374;19.446;2022-12-07T10:31:55;8.32;;;2.00;;
18853;SDS011;9556;49.374;19.446;2022-12-07T10:34:26;20.90;;;5.15;;
18853;SDS011;9556;49.374;19.446;2022-12-07T10:36:55;30.13;;;8.00;;
18853;SDS011;9556;49.374;19.446;2022-12-07T10:39:39;31.50;;;7.15;;
18853;SDS011;9556;49.374;19.446;2022-12-07T10:42:09;29.10;;;6.25;;
18853;SDS011;9556;49.374;19.446;2022-12-07T10:44:42;39.50;;;7.40;;
18853;SDS011;9556;49.374;19.446;2022-12-07T10:47:14;29.25;;;6.50;;
18853;SDS011;9556;49.374;19.446;2022-12-07T10:52:49;28.17;;;5.80;;
18853;SDS011;9556;49.374;19.446;2022-12-07T10:55:20;20.60;;;5.32;;
18853;SDS011;9556;49.374;19.446;2022-12-07T10:57:58;17.20;;;4.05;;
18853;SDS011;9556;49.374;19.446;2022-12-07T11:00:29;19.92;;;4.72;;
18853;SDS011;9556;49.374;19.446;2022-12-07T11:03:05;16.38;;;4.15;;
18853;SDS011;9556;49.374;19.446;2022-12-07T11:05:36;16.90;;;3.60;;
18853;SDS011;9556;49.374;19.446;2022-12-07T11:08:12;13.95;;;3.22;;
18853;SDS011;9556;49.374;19.446;2022-12-07T11:10:43;9.23;;;3.45;;
18853;SDS011;9556;49.374;19.446;2022-12-07T11:13:16;10.30;;;2.88;;
18853;SDS011;9556;49.374;19.446;2022-12-07T11:15:55;17.35;;;2.95;;
18853;SDS011;9556;49.374;19.446;2022-12-07T11:18:26;14.93;;;2.90;;
18853;SDS011;9556;49.374;19.446;2022-12-07T11:20:56;12.15;;;2.83;;
18853;SDS011;9556;49.374;19.446;2022-12-07T11:23:30;9.20;;;2.40;;
18853;SDS011;9556;49.374;19.446;2022-12-07T11:26:02;19.17;;;2.55;;
18853;SDS011;9556;49.374;19.446;2022-12-07T11:28:36;11.52;;;2.35;;
18853;SDS011;9556;49.374;19.446;2022-12-07T11:31:09;9.35;;;2.58;;
18853;SDS011;9556;49.374;19.446;2022-12-07T11:33:40;14.85;;;2.47;;
18853;SDS011;9556;49.374;19.446;2022-12-07T11:36:14;8.48;;;2.72;;
18853;SDS011;9556;49.374;19.446;2022-12-07T11:38:45;11.07;;;2.47;;
18853;SDS011;9556;49.374;19.446;2022-12-07T11:41:15;14.35;;;2.17;;
18853;SDS011;9556;49.374;19.446;2022-12-07T11:46:42;10.18;;;2.30;;
18853;SDS011;9556;49.374;19.446;2022-12-07T11:49:13;9.10;;;1.95;;
18853;SDS011;9556;49.374;19.446;2022-12-07T11:51:41;5.53;;;2.10;;
18853;SDS011;9556;49.374;19.446;2022-12-07T11:54:14;12.18;;;2.40;;
18853;SDS011;9556;49.374;19.446;2022-12-07T11:56:42;8.02;;;2.33;;
18853;SDS011;9556;49.374;19.446;2022-12-07T11:59:11;13.30;;;2.83;;
18853;SDS011;9556;49.374;19.446;2022-12-07T12:01:42;9.98;;;2.00;;
18853;SDS011;9556;49.374;19.446;2022-12-07T12:04:18;11.23;;;2.70;;
18853;SDS011;9556;49.374;19.446;2022-12-07T12:06:52;20.33;;;2.08;;
18853;SDS011;9556;49.374;19.446;2022-12-07T12:09:22;12.98;;;2.53;;
18853;SDS011;9556;49.374;19.446;2022-12-07T12:11:56;16.27;;;2.60;;
18853;SDS011;9556;49.374;19.446;2022-12-07T12:14:43;10.40;;;1.92;;
18853;SDS011;9556;49.374;19.446;2022-12-07T12:17:17;12.32;;;2.30;;
18853;SDS011;9556;49.374;19.446;2022-12-07T12:19:55;10.85;;;2.33;;
18853;SDS011;9556;49.374;19.446;2022-12-07T12:22:26;15.13;;;2.17;;
18853;SDS011;9556;49.374;19.446;2022-12-07T12:24:56;21.52;;;2.53;;
18853;SDS011;9556;49.374;19.446;2022-12-07T12:27:25;21.08;;;2.58;;
18853;SDS011;9556;49.374;19.446;2022-12-07T12:29:55;8.63;;;2.20;;
18853;SDS011;9556;49.374;19.446;2022-12-07T12:32:24;18.42;;;2.65;;
18853;SDS011;9556;49.374;19.446;2022-12-07T12:34:57;17.73;;;2.10;;
18853;SDS011;9556;49.374;19.446;2022-12-07T12:37:43;11.63;;;2.33;;
18853;SDS011;9556;49.374;19.446;2022-12-07T12:42:58;13.52;;;2.10;;
18853;SDS011;9556;49.374;19.446;2022-12-07T12:45:26;10.05;;;2.33;;
18853;SDS011;9556;49.374;19.446;2022-12-07T12:47:54;14.38;;;2.85;;
18853;SDS011;9556;49.374;19.446;2022-12-07T12:50:25;11.02;;;2.72;;
18853;SDS011;9556;49.374;19.446;2022-12-07T12:53:03;14.68;;;2.50;;
18853;SDS011;9556;49.374;19.446;2022-12-07T12:55:45;8.73;;;2.60;;
18853;SDS011;9556;49.374;19.446;2022-12-07T12:58:28;7.75;;;2.42;;
18853;SDS011;9556;49.374;19.446;2022-12-07T13:03:47;20.48;;;2.60;;
18853;SDS011;9556;49.374;19.446;2022-12-07T13:06:19;16.00;;;2.38;;
18853;SDS011;9556;49.374;19.446;2022-12-07T13:08:58;11.18;;;2.10;;
18853;SDS011;9556;49.374;19.446;2022-12-07T13:11:28;9.07;;;2.40;;
18853;SDS011;9556;49.374;19.446;2022-12-07T13:16:40;6.47;;;2.20;;
18853;SDS011;9556;49.374;19.446;2022-12-07T13:21:53;13.60;;;2.40;;
18853;SDS011;9556;49.374;19.446;2022-12-07T13:24:20;9.43;;;2.63;;
18853;SDS011;9556;49.374;19.446;2022-12-07T13:26:48;16.30;;;2.92;;
18853;SDS011;9556;49.374;19.446;2022-12-07T13:29:16;22.40;;;2.70;;
18853;SDS011;9556;49.374;19.446;2022-12-07T13:31:46;7.18;;;2.15;;
18853;SDS011;9556;49.374;19.446;2022-12-07T13:34:27;17.90;;;2.63;;
18853;SDS011;9556;49.374;19.446;2022-12-07T13:36:55;8.00;;;2.45;;
18853;SDS011;9556;49.374;19.446;2022-12-07T13:39:23;9.23;;;2.22;;
18853;SDS011;9556;49.374;19.446;2022-12-07T13:41:51;8.73;;;2.58;;
18853;SDS011;9556;49.374;19.446;2022-12-07T13:44:19;21.67;;;2.47;;
18853;SDS011;9556;49.374;19.446;2022-12-07T13:46:51;10.25;;;2.10;;
18853;SDS011;9556;49.374;19.446;2022-12-07T13:49:22;9.90;;;2.55;;
18853;SDS011;9556;49.374;19.446;2022-12-07T13:51:49;11.73;;;2.08;;
18853;SDS011;9556;49.374;19.446;2022-12-07T13:54:16;7.18;;;2.30;;
18853;SDS011;9556;49.374;19.446;2022-12-07T13:56:44;10.93;;;2.10;;
18853;SDS011;9556;49.374;19.446;2022-12-07T13:59:14;8.60;;;2.25;;
18853;SDS011;9556;49.374;19.446;2022-12-07T14:01:43;8.43;;;2.08;;
18853;SDS011;9556;49.374;19.446;2022-12-07T14:04:25;7.57;;;2.58;;
18853;SDS011;9556;49.374;19.446;2022-12-07T14:06:54;13.65;;;2.40;;
18853;SDS011;9556;49.374;19.446;2022-12-07T14:09:22;11.32;;;2.30;;
18853;SDS011;9556;49.374;19.446;2022-12-07T14:11:50;13.98;;;2.50;;
18853;SDS011;9556;49.374;19.446;2022-12-07T14:14:19;8.45;;;2.60;;
18853;SDS011;9556;49.374;19.446;2022-12-07T14:16:57;12.23;;;2.22;;
18853;SDS011;9556;49.374;19.446;2022-12-07T14:19:42;12.38;;;2.50;;
18853;SDS011;9556;49.374;19.446;2022-12-07T14:22:18;9.43;;;2.10;;
18853;SDS011;9556;49.374;19.446;2022-12-07T14:24:45;13.13;;;2.13;;
18853;SDS011;9556;49.374;19.446;2022-12-07T14:27:16;12.60;;;2.13;;
18853;SDS011;9556;49.374;19.446;2022-12-07T14:29:44;12.35;;;2.00;;
18853;SDS011;9556;49.374;19.446;2022-12-07T14:32:19;22.95;;;2.53;;
18853;SDS011;9556;49.374;19.446;2022-12-07T14:34:56;9.73;;;2.05;;
18853;SDS011;9556;49.374;19.446;2022-12-07T14:37:23;8.38;;;2.28;;
18853;SDS011;9556;49.374;19.446;2022-12-07T14:39:50;15.77;;;2.25;;
18853;SDS011;9556;49.374;19.446;2022-12-07T14:42:17;12.48;;;2.30;;
18853;SDS011;9556;49.374;19.446;2022-12-07T14:44:45;13.10;;;2.45;;
18853;SDS011;9556;49.374;19.446;2022-12-07T14:47:12;12.20;;;2.63;;
18853;SDS011;9556;49.374;19.446;2022-12-07T14:49:40;20.30;;;2.83;;
18853;SDS011;9556;49.374;19.446;2022-12-07T14:52:11;16.27;;;2.60;;
18853;SDS011;9556;49.374;19.446;2022-12-07T14:54:40;21.80;;;2.65;;
18853;SDS011;9556;49.374;19.446;2022-12-07T14:57:08;22.83;;;2.35;;
18853;SDS011;9556;49.374;19.446;2022-12-07T14:59:35;18.52;;;2.30;;
18853;SDS011;9556;49.374;19.446;2022-12-07T15:02:03;14.85;;;2.47;;
18853;SDS011;9556;49.374;19.446;2022-12-07T15:04:30;12.30;;;2.20;;
18853;SDS011;9556;49.374;19.446;2022-12-07T15:06:58;17.17;;;2.40;;
18853;SDS011;9556;49.374;19.446;2022-12-07T15:09:27;10.48;;;2.03;;
18853;SDS011;9556;49.374;19.446;2022-12-07T15:11:54;16.35;;;2.45;;
18853;SDS011;9556;49.374;19.446;2022-12-07T15:14:21;20.67;;;2.42;;
18853;SDS011;9556;49.374;19.446;2022-12-07T15:16:48;12.18;;;2.63;;